sensor_id;sensor_type;location;lat;lon;timestamp;pressure;altitude;pressure_sealevel;temperature;humidity
49397;BME280;35615;41.410;2.194;2023-05-22T00:00:02;101182.03;;;22.80;50.59
49397;BME280;35615;41.410;2.194;2023-05-22T00:02:35;101165.38;;;22.78;50.33
49397;BME280;35615;41.410;2.194;2023-05-22T00:05:13;101177.66;;;22.79;50.32
49397;BME280;35615;41.410;2.194;2023-05-22T00:07:50;101175.94;;;22.76;50.31
49397;BME280;35615;41.410;2.194;2023-05-22T00:10:20;101170.66;;;22.75;50.33
49397;BME280;35615;41.410;2.194;2023-05-22T00:12:52;101177.69;;;22.74;50.23
49397;BME280;35615;41.410;2.194;2023-05-22T00:15:22;101180.34;;;22.73;50.27
49397;BME280;35615;41.410;2.194;2023-05-22T00:17:50;101179.47;;;22.74;50.45
49397;BME280;35615;41.410;2.194;2023-05-22T00:20:23;101182.09;;;22.71;50.25
49397;BME280;35615;41.410;2.194;2023-05-22T00:22:51;101180.31;;;22.71;50.43
49397;BME280;35615;41.410;2.194;2023-05-22T00:25:25;101181.22;;;22.70;50.23
49397;BME280;35615;41.410;2.194;2023-05-22T00:27:52;101177.69;;;22.74;50.19
49397;BME280;35615;41.410;2.194;2023-05-22T00:30:19;101175.94;;;22.76;49.96
49397;BME280;35615;41.410;2.194;2023-05-22T00:32:50;101175.03;;;22.77;50.06
49397;BME280;35615;41.410;2.194;2023-05-22T00:35:22;101171.53;;;22.78;49.92
49397;BME280;35615;41.410;2.194;2023-05-22T00:37:49;101178.53;;;22.79;49.99
49397;BME280;35615;41.410;2.194;2023-05-22T00:40:20;101176.78;;;22.80;49.79
49397;BME280;35615;41.410;2.194;2023-05-22T00:42:53;101175.03;;;22.79;49.92
49397;BME280;35615;41.410;2.194;2023-05-22T00:45:20;101178.56;;;22.78;49.75
49397;BME280;35615;41.410;2.194;2023-05-22T00:47:50;101172.41;;;22.79;49.50
49397;BME280;35615;41.410;2.194;2023-05-22T00:50:20;101169.75;;;22.80;49.66
49397;BME280;35615;41.410;2.194;2023-05-22T00:52:50;101168.00;;;22.79;49.58
49397;BME280;35615;41.410;2.194;2023-05-22T00:55:17;101167.13;;;22.83;49.62
49397;BME280;35615;41.410;2.194;2023-05-22T00:57:45;101165.41;;;22.84;49.46
49397;BME280;35615;41.410;2.194;2023-05-22T01:02:55;101168.03;;;22.84;49.58
49397;BME280;35615;41.410;2.194;2023-05-22T01:05:38;101165.38;;;22.79;49.62
49397;BME280;35615;41.410;2.194;2023-05-22T01:08:19;101164.50;;;22.76;49.67
49397;BME280;35615;41.410;2.194;2023-05-22T01:11:05;101160.97;;;22.80;49.91
49397;BME280;35615;41.410;2.194;2023-05-22T01:14:03;101166.25;;;22.80;49.98
49397;BME280;35615;41.410;2.194;2023-05-22T01:17:00;101166.28;;;22.75;49.95
49397;BME280;35615;41.410;2.194;2023-05-22T01:19:52;101163.66;;;22.75;50.10
49397;BME280;35615;41.410;2.194;2023-05-22T01:31:31;101158.38;;;22.72;50.07
49397;BME280;35615;41.410;2.194;2023-05-22T01:34:12;101155.72;;;22.77;49.79
49397;BME280;35615;41.410;2.194;2023-05-22T01:36:50;101147.84;;;22.71;50.05
49397;BME280;35615;41.410;2.194;2023-05-22T01:39:21;101147.84;;;22.71;49.83
49397;BME280;35615;41.410;2.194;2023-05-22T01:41:56;101143.50;;;22.67;49.73
49397;BME280;35615;41.410;2.194;2023-05-22T01:44:26;101142.59;;;22.69;50.10
49397;BME280;35615;41.410;2.194;2023-05-22T01:47:06;101152.25;;;22.67;50.13
49397;BME280;35615;41.410;2.194;2023-05-22T01:49:38;101140.03;;;22.61;50.00
49397;BME280;35615;41.410;2.194;2023-05-22T01:52:19;101153.16;;;22.65;49.58
49397;BME280;35615;41.410;2.194;2023-05-22T01:55:04;101137.34;;;22.65;49.89
49397;BME280;35615;41.410;2.194;2023-05-22T02:00:55;101146.16;;;22.62;50.06
49397;BME280;35615;41.410;2.194;2023-05-22T02:03:31;101139.13;;;22.64;49.95
49397;BME280;35615;41.410;2.194;2023-05-22T02:06:04;101136.50;;;22.58;50.07
49397;BME280;35615;41.410;2.194;2023-05-22T02:08:37;101138.25;;;22.62;50.11
49397;BME280;35615;41.410;2.194;2023-05-22T02:11:09;101139.13;;;22.63;50.07
49397;BME280;35615;41.410;2.194;2023-05-22T02:13:40;101136.47;;;22.61;49.82
49397;BME280;35615;41.410;2.194;2023-05-22T02:16:10;101136.50;;;22.59;50.00
49397;BME280;35615;41.410;2.194;2023-05-22T02:18:38;101141.75;;;22.64;49.61
49397;BME280;35615;41.410;2.194;2023-05-22T02:21:10;101137.34;;;22.65;49.74
49397;BME280;35615;41.410;2.194;2023-05-22T02:23:38;101135.63;;;22.64;49.86
49397;BME280;35615;41.410;2.194;2023-05-22T02:26:05;101138.22;;;22.65;49.95
49397;BME280;35615;41.410;2.194;2023-05-22T02:28:32;101130.34;;;22.65;49.91
49397;BME280;35615;41.410;2.194;2023-05-22T02:30:59;101131.22;;;22.64;49.86
49397;BME280;35615;41.410;2.194;2023-05-22T02:33:28;101132.97;;;22.65;49.59
49397;BME280;35615;41.410;2.194;2023-05-22T02:35:56;101123.31;;;22.64;50.04
49397;BME280;35615;41.410;2.194;2023-05-22T02:38:28;101132.06;;;22.69;49.74
49397;BME280;35615;41.410;2.194;2023-05-22T02:40:55;101131.22;;;22.64;49.99
49397;BME280;35615;41.410;2.194;2023-05-22T02:43:22;101132.06;;;22.68;49.64
49397;BME280;35615;41.410;2.194;2023-05-22T02:45:50;101128.56;;;22.67;49.76
49397;BME280;35615;41.410;2.194;2023-05-22T02:48:17;101125.06;;;22.64;49.88
49397;BME280;35615;41.410;2.194;2023-05-22T02:50:44;101122.44;;;22.65;49.88
49397;BME280;35615;41.410;2.194;2023-05-22T02:53:14;101123.34;;;22.63;49.70
49397;BME280;35615;41.410;2.194;2023-05-22T02:55:42;101120.69;;;22.64;49.64
49397;BME280;35615;41.410;2.194;2023-05-22T02:58:10;101118.94;;;22.58;49.87
49397;BME280;35615;41.410;2.194;2023-05-22T03:03:24;101125.06;;;22.64;49.74
49397;BME280;35615;41.410;2.194;2023-05-22T03:05:58;101124.22;;;22.63;49.97
49397;BME280;35615;41.410;2.194;2023-05-22T03:08:29;101118.94;;;22.65;49.81
49397;BME280;35615;41.410;2.194;2023-05-22T03:11:01;101112.78;;;22.66;49.63
49397;BME280;35615;41.410;2.194;2023-05-22T03:13:35;101117.19;;;22.64;49.69
49397;BME280;35615;41.410;2.194;2023-05-22T03:16:11;101106.63;;;22.65;50.01
49397;BME280;35615;41.410;2.194;2023-05-22T03:18:49;101110.16;;;22.59;49.95
49397;BME280;35615;41.410;2.194;2023-05-22T03:21:25;101111.91;;;22.64;49.68
49397;BME280;35615;41.410;2.194;2023-05-22T03:23:53;101112.75;;;22.69;49.53
49397;BME280;35615;41.410;2.194;2023-05-22T03:26:24;101113.63;;;22.68;49.61
49397;BME280;35615;41.410;2.194;2023-05-22T03:28:56;101117.13;;;22.68;49.56
49397;BME280;35615;41.410;2.194;2023-05-22T03:31:32;101112.78;;;22.64;49.71
49397;BME280;35615;41.410;2.194;2023-05-22T03:34:06;101108.38;;;22.68;49.76
49397;BME280;35615;41.410;2.194;2023-05-22T03:36:40;101111.00;;;22.68;49.56
49397;BME280;35615;41.410;2.194;2023-05-22T03:39:22;101102.25;;;22.64;49.96
49397;BME280;35615;41.410;2.194;2023-05-22T03:42:01;101097.03;;;22.49;49.71
49397;BME280;35615;41.410;2.194;2023-05-22T03:44:32;101105.75;;;22.65;49.65
49397;BME280;35615;41.410;2.194;2023-05-22T03:47:02;101093.47;;;22.59;49.47
49397;BME280;35615;41.410;2.194;2023-05-22T03:49:30;101097.03;;;22.55;49.75
49397;BME280;35615;41.410;2.194;2023-05-22T03:51:58;101104.00;;;22.60;49.55
49397;BME280;35615;41.410;2.194;2023-05-22T03:54:32;101105.75;;;22.60;49.65
49397;BME280;35615;41.410;2.194;2023-05-22T03:57:07;101108.41;;;22.58;49.71
49397;BME280;35615;41.410;2.194;2023-05-22T03:59:43;101102.28;;;22.56;49.91
49397;BME280;35615;41.410;2.194;2023-05-22T04:02:27;101118.06;;;22.59;49.92
49397;BME280;35615;41.410;2.194;2023-05-22T04:05:05;101114.56;;;22.56;49.91
49397;BME280;35615;41.410;2.194;2023-05-22T04:07:33;101112.78;;;22.61;49.87
49397;BME280;35615;41.410;2.194;2023-05-22T04:10:04;101119.84;;;22.56;49.64
49397;BME280;35615;41.410;2.194;2023-05-22T04:12:35;101108.47;;;22.52;49.77
49397;BME280;35615;41.410;2.194;2023-05-22T04:15:08;101113.69;;;22.55;49.68
49397;BME280;35615;41.410;2.194;2023-05-22T04:17:39;101111.06;;;22.61;49.77
49397;BME280;35615;41.410;2.194;2023-05-22T04:20:14;101123.31;;;22.61;49.88
49397;BME280;35615;41.410;2.194;2023-05-22T04:22:45;101108.41;;;22.61;50.00
49397;BME280;35615;41.410;2.194;2023-05-22T04:25:16;101118.94;;;22.63;49.82
49397;BME280;35615;41.410;2.194;2023-05-22T04:27:44;101114.53;;;22.65;49.51
49397;BME280;35615;41.410;2.194;2023-05-22T04:30:20;101117.97;;;22.72;49.93
49397;BME280;35615;41.410;2.194;2023-05-22T04:32:49;101117.13;;;22.71;49.73
49397;BME280;35615;41.410;2.194;2023-05-22T04:35:28;101116.25;;;22.69;49.69
49397;BME280;35615;41.410;2.194;2023-05-22T04:38:09;101121.53;;;22.69;49.97
49397;BME280;35615;41.410;2.194;2023-05-22T04:40:37;101124.16;;;22.68;49.92
49397;BME280;35615;41.410;2.194;2023-05-22T04:43:07;101118.00;;;22.70;49.84
49397;BME280;35615;41.410;2.194;2023-05-22T04:45:43;101125.91;;;22.73;49.72
49397;BME280;35615;41.410;2.194;2023-05-22T04:48:15;101126.75;;;22.75;49.68
49397;BME280;35615;41.410;2.194;2023-05-22T04:50:53;101132.03;;;22.75;50.14
49397;BME280;35615;41.410;2.194;2023-05-22T04:53:33;101130.28;;;22.74;50.07
49397;BME280;35615;41.410;2.194;2023-05-22T04:56:03;101129.41;;;22.74;50.07
49397;BME280;35615;41.410;2.194;2023-05-22T04:58:39;101134.66;;;22.72;50.53
49397;BME280;35615;41.410;2.194;2023-05-22T05:01:10;101132.03;;;22.72;51.46
49397;BME280;35615;41.410;2.194;2023-05-22T05:03:44;101132.91;;;22.71;50.82
49397;BME280;35615;41.410;2.194;2023-05-22T05:06:14;101131.16;;;22.70;51.26
49397;BME280;35615;41.410;2.194;2023-05-22T05:08:43;101133.78;;;22.72;51.49
49397;BME280;35615;41.410;2.194;2023-05-22T05:11:15;101137.28;;;22.72;51.36
49397;BME280;35615;41.410;2.194;2023-05-22T05:13:52;101140.81;;;22.71;51.51
49397;BME280;35615;41.410;2.194;2023-05-22T05:16:25;101147.03;;;22.58;52.06
49397;BME280;35615;41.410;2.194;2023-05-22T05:19:00;101147.84;;;22.72;51.30
49397;BME280;35615;41.410;2.194;2023-05-22T05:21:46;101145.22;;;22.69;51.50
49397;BME280;35615;41.410;2.194;2023-05-22T05:24:22;101140.00;;;22.65;51.69
49397;BME280;35615;41.410;2.194;2023-05-22T05:26:53;101147.88;;;22.68;51.01
49397;BME280;35615;41.410;2.194;2023-05-22T05:29:31;101153.97;;;22.71;50.76
49397;BME280;35615;41.410;2.194;2023-05-22T05:32:05;101146.97;;;22.75;50.49
49397;BME280;35615;41.410;2.194;2023-05-22T05:34:47;101146.94;;;22.76;50.82
49397;BME280;35615;41.410;2.194;2023-05-22T05:37:49;101150.47;;;22.75;50.65
49397;BME280;35615;41.410;2.194;2023-05-22T05:40:18;101155.84;;;22.52;50.48
49397;BME280;35615;41.410;2.194;2023-05-22T05:42:54;101168.16;;;22.50;50.61
49397;BME280;35615;41.410;2.194;2023-05-22T05:45:25;101162.84;;;22.58;50.19
49397;BME280;35615;41.410;2.194;2023-05-22T05:47:56;101163.69;;;22.65;50.15
49397;BME280;35615;41.410;2.194;2023-05-22T05:50:24;101163.63;;;22.72;49.48
49397;BME280;35615;41.410;2.194;2023-05-22T05:52:52;101170.66;;;22.78;49.55
49397;BME280;35615;41.410;2.194;2023-05-22T05:55:23;101172.41;;;22.76;49.55
49397;BME280;35615;41.410;2.194;2023-05-22T05:57:52;101171.50;;;22.80;49.81
49397;BME280;35615;41.410;2.194;2023-05-22T06:00:29;101179.44;;;22.75;49.80
49397;BME280;35615;41.410;2.194;2023-05-22T06:02:57;101182.94;;;22.77;49.94
49397;BME280;35615;41.410;2.194;2023-05-22T06:05:42;101186.47;;;22.70;50.19
49397;BME280;35615;41.410;2.194;2023-05-22T06:08:19;101186.47;;;22.75;50.28
49397;BME280;35615;41.410;2.194;2023-05-22T06:10:48;101185.56;;;22.79;49.89
49397;BME280;35615;41.410;2.194;2023-05-22T06:13:31;101180.28;;;22.88;49.98
49397;BME280;35615;41.410;2.194;2023-05-22T06:15:58;101190.84;;;22.86;50.04
49397;BME280;35615;41.410;2.194;2023-05-22T06:18:33;101190.81;;;22.88;50.11
49397;BME280;35615;41.410;2.194;2023-05-22T06:21:03;101186.38;;;22.93;49.95
49397;BME280;35615;41.410;2.194;2023-05-22T06:23:30;101183.78;;;22.92;50.08
49397;BME280;35615;41.410;2.194;2023-05-22T06:26:03;101184.66;;;22.89;50.21
49397;BME280;35615;41.410;2.194;2023-05-22T06:28:37;101182.88;;;22.94;50.18
49397;BME280;35615;41.410;2.194;2023-05-22T06:31:24;101186.41;;;22.92;50.12
49397;BME280;35615;41.410;2.194;2023-05-22T06:33:54;101182.88;;;22.94;50.01
49397;BME280;35615;41.410;2.194;2023-05-22T06:36:25;101180.25;;;22.97;50.15
49397;BME280;35615;41.410;2.194;2023-05-22T06:38:57;101175.81;;;23.02;50.15
49397;BME280;35615;41.410;2.194;2023-05-22T06:41:50;101181.06;;;23.04;50.50
49397;BME280;35615;41.410;2.194;2023-05-22T06:44:17;101172.25;;;23.09;49.95
49397;BME280;35615;41.410;2.194;2023-05-22T06:46:53;101170.47;;;23.11;50.15
49397;BME280;35615;41.410;2.194;2023-05-22T06:49:24;101169.59;;;23.12;49.98
49397;BME280;35615;41.410;2.194;2023-05-22T06:51:53;101169.63;;;23.09;49.97
49397;BME280;35615;41.410;2.194;2023-05-22T06:54:21;101184.47;;;23.23;49.55
49397;BME280;35615;41.410;2.194;2023-05-22T06:56:54;101174.84;;;23.18;49.54
49397;BME280;35615;41.410;2.194;2023-05-22T06:59:25;101180.03;;;23.26;49.29
49397;BME280;35615;41.410;2.194;2023-05-22T07:01:52;101191.47;;;23.28;49.63
49397;BME280;35615;41.410;2.194;2023-05-22T07:04:30;101198.47;;;23.26;49.31
49397;BME280;35615;41.410;2.194;2023-05-22T07:07:05;101200.22;;;23.30;49.34
49397;BME280;35615;41.410;2.194;2023-05-22T07:09:33;101202.00;;;23.27;49.69
49397;BME280;35615;41.410;2.194;2023-05-22T07:12:04;101208.16;;;23.29;49.68
49397;BME280;35615;41.410;2.194;2023-05-22T07:14:41;101205.56;;;23.21;49.65
49397;BME280;35615;41.410;2.194;2023-05-22T07:17:08;101210.03;;;23.08;49.85
49397;BME280;35615;41.410;2.194;2023-05-22T07:19:40;101208.25;;;23.10;49.83
49397;BME280;35615;41.410;2.194;2023-05-22T07:22:11;101219.66;;;23.18;49.82
49397;BME280;35615;41.410;2.194;2023-05-22T07:24:40;101220.50;;;23.16;50.14
49397;BME280;35615;41.410;2.194;2023-05-22T07:27:07;101216.13;;;23.18;49.97
49397;BME280;35615;41.410;2.194;2023-05-22T07:29:36;101225.81;;;23.17;49.87
49397;BME280;35615;41.410;2.194;2023-05-22T07:32:05;101224.94;;;23.11;50.06
49397;BME280;35615;41.410;2.194;2023-05-22T07:34:34;101228.53;;;23.01;50.19
49397;BME280;35615;41.410;2.194;2023-05-22T07:37:06;101238.22;;;22.93;49.89
49397;BME280;35615;41.410;2.194;2023-05-22T07:39:35;101234.72;;;22.89;50.02
49397;BME280;35615;41.410;2.194;2023-05-22T07:42:04;101235.59;;;22.89;49.96
49397;BME280;35615;41.410;2.194;2023-05-22T07:44:37;101233.88;;;22.85;50.05
49397;BME280;35615;41.410;2.194;2023-05-22T07:47:10;101233.84;;;22.88;50.09
49397;BME280;35615;41.410;2.194;2023-05-22T07:49:47;101236.47;;;22.92;50.19
49397;BME280;35615;41.410;2.194;2023-05-22T07:52:14;101238.25;;;22.86;50.68
49397;BME280;35615;41.410;2.194;2023-05-22T07:54:42;101247.00;;;22.82;50.37
49397;BME280;35615;41.410;2.194;2023-05-22T07:57:12;101238.28;;;22.76;50.91
49397;BME280;35615;41.410;2.194;2023-05-22T07:59:42;101238.25;;;22.86;50.87
49397;BME280;35615;41.410;2.194;2023-05-22T08:02:10;101241.72;;;22.92;50.56
49397;BME280;35615;41.410;2.194;2023-05-22T08:04:37;101243.47;;;22.97;50.63
49397;BME280;35615;41.410;2.194;2023-05-22T08:07:05;101242.56;;;23.01;50.42
49397;BME280;35615;41.410;2.194;2023-05-22T08:09:33;101248.75;;;22.96;50.54
49397;BME280;35615;41.410;2.194;2023-05-22T08:12:01;101243.41;;;23.05;50.25
49397;BME280;35615;41.410;2.194;2023-05-22T08:14:33;101245.19;;;23.04;49.90
49397;BME280;35615;41.410;2.194;2023-05-22T08:17:01;101241.66;;;23.05;49.92
49397;BME280;35615;41.410;2.194;2023-05-22T08:19:28;101237.28;;;23.03;49.49
49397;BME280;35615;41.410;2.194;2023-05-22T08:21:56;101246.97;;;23.01;49.59
49397;BME280;35615;41.410;2.194;2023-05-22T08:24:24;101249.59;;;23.07;49.25
49397;BME280;35615;41.410;2.194;2023-05-22T08:26:56;101245.19;;;23.06;49.56
49397;BME280;35615;41.410;2.194;2023-05-22T08:29:25;101244.28;;;23.10;49.59
49397;BME280;35615;41.410;2.194;2023-05-22T08:31:52;101252.19;;;23.05;49.17
49397;BME280;35615;41.410;2.194;2023-05-22T08:34:24;101244.31;;;23.07;49.54
49397;BME280;35615;41.410;2.194;2023-05-22T08:36:51;101244.41;;;22.88;49.56
49397;BME280;35615;41.410;2.194;2023-05-22T08:39:19;101246.06;;;23.02;49.52
49397;BME280;35615;41.410;2.194;2023-05-22T08:41:46;101254.84;;;23.02;49.22
49397;BME280;35615;41.410;2.194;2023-05-22T08:44:15;101258.44;;;22.95;49.81
49397;BME280;35615;41.410;2.194;2023-05-22T08:46:43;101248.75;;;22.99;49.92
49397;BME280;35615;41.410;2.194;2023-05-22T08:49:16;101249.69;;;22.85;50.41
49397;BME280;35615;41.410;2.194;2023-05-22T08:51:47;101257.56;;;22.88;50.40
49397;BME280;35615;41.410;2.194;2023-05-22T08:54:20;101257.59;;;22.76;51.21
49397;BME280;35615;41.410;2.194;2023-05-22T08:56:54;101270.75;;;22.76;51.44
49397;BME280;35615;41.410;2.194;2023-05-22T08:59:25;101267.25;;;22.74;51.52
49397;BME280;35615;41.410;2.194;2023-05-22T09:01:53;101262.03;;;22.62;52.10
49397;BME280;35615;41.410;2.194;2023-05-22T09:04:21;101269.06;;;22.63;52.25
49397;BME280;35615;41.410;2.194;2023-05-22T09:06:57;101272.56;;;22.65;53.06
49397;BME280;35615;41.410;2.194;2023-05-22T09:09:41;101268.19;;;22.63;53.22
49397;BME280;35615;41.410;2.194;2023-05-22T09:12:09;101267.25;;;22.70;52.87
49397;BME280;35615;41.410;2.194;2023-05-22T09:14:40;101268.19;;;22.63;53.89
49397;BME280;35615;41.410;2.194;2023-05-22T09:17:09;101262.03;;;22.56;53.83
49397;BME280;35615;41.410;2.194;2023-05-22T09:19:44;101262.06;;;22.48;54.24
49397;BME280;35615;41.410;2.194;2023-05-22T09:22:18;101256.78;;;22.53;54.45
49397;BME280;35615;41.410;2.194;2023-05-22T09:24:53;101247.13;;;22.56;54.30
49397;BME280;35615;41.410;2.194;2023-05-22T09:27:25;101245.34;;;22.57;53.93
49397;BME280;35615;41.410;2.194;2023-05-22T09:29:56;101236.59;;;22.55;53.51
49397;BME280;35615;41.410;2.194;2023-05-22T09:32:28;101239.22;;;22.49;54.19
49397;BME280;35615;41.410;2.194;2023-05-22T09:35:01;101233.94;;;22.58;54.01
49397;BME280;35615;41.410;2.194;2023-05-22T09:37:34;101242.72;;;22.65;53.38
49397;BME280;35615;41.410;2.194;2023-05-22T09:40:06;101235.69;;;22.59;53.24
49397;BME280;35615;41.410;2.194;2023-05-22T09:42:34;101228.63;;;22.70;52.92
49397;BME280;35615;41.410;2.194;2023-05-22T09:45:06;101231.25;;;22.69;53.28
49397;BME280;35615;41.410;2.194;2023-05-22T09:47:34;101230.38;;;22.70;53.10
49397;BME280;35615;41.410;2.194;2023-05-22T09:50:03;101241.91;;;22.37;53.25
49397;BME280;35615;41.410;2.194;2023-05-22T09:52:34;101245.25;;;22.81;52.65
49397;BME280;35615;41.410;2.194;2023-05-22T09:55:05;101246.06;;;23.03;52.17
49397;BME280;35615;41.410;2.194;2023-05-22T09:57:43;101241.66;;;23.10;52.80
49397;BME280;35615;41.410;2.194;2023-05-22T10:00:14;101243.28;;;23.31;52.76
49397;BME280;35615;41.410;2.194;2023-05-22T10:03:28;101237.00;;;23.47;52.47
49397;BME280;35615;41.410;2.194;2023-05-22T10:05:46;101238.63;;;23.69;52.60
49397;BME280;35615;41.410;2.194;2023-05-22T10:08:42;101233.88;;;24.10;51.02
49397;BME280;35615;41.410;2.194;2023-05-22T10:11:11;101228.28;;;24.43;49.76
49397;BME280;35615;41.410;2.194;2023-05-22T10:13:40;101226.38;;;24.56;48.98
49397;BME280;35615;41.410;2.194;2023-05-22T10:16:14;101220.75;;;24.82;48.93
49397;BME280;35615;41.410;2.194;2023-05-22T10:18:46;101220.50;;;25.03;49.02
49397;BME280;35615;41.410;2.194;2023-05-22T10:21:16;101222.94;;;25.15;48.16
49397;BME280;35615;41.410;2.194;2023-05-22T10:23:44;101222.91;;;25.20;47.70
49397;BME280;35615;41.410;2.194;2023-05-22T10:26:12;101206.72;;;25.41;47.08
49397;BME280;35615;41.410;2.194;2023-05-22T10:28:43;101203.66;;;25.66;46.06
49397;BME280;35615;41.410;2.194;2023-05-22T10:31:26;101198.88;;;25.89;46.19
49397;BME280;35615;41.410;2.194;2023-05-22T10:34:01;101196.59;;;26.16;45.14
49397;BME280;35615;41.410;2.194;2023-05-22T10:36:36;101189.59;;;26.58;44.51
49397;BME280;35615;41.410;2.194;2023-05-22T10:39:21;101195.09;;;26.50;44.82
49397;BME280;35615;41.410;2.194;2023-05-22T10:41:53;101187.25;;;26.44;43.20
49397;BME280;35615;41.410;2.194;2023-05-22T10:44:23;101189.13;;;26.38;43.36
49397;BME280;35615;41.410;2.194;2023-05-22T10:46:51;101191.81;;;26.34;43.94
49397;BME280;35615;41.410;2.194;2023-05-22T10:49:22;101200.72;;;26.32;44.28
49397;BME280;35615;41.410;2.194;2023-05-22T10:51:56;101194.63;;;26.27;44.05
49397;BME280;35615;41.410;2.194;2023-05-22T10:54:44;101194.47;;;26.34;43.77
49397;BME280;35615;41.410;2.194;2023-05-22T10:57:15;101209.53;;;26.32;43.54
49397;BME280;35615;41.410;2.194;2023-05-22T10:59:46;101199.88;;;26.75;42.94
49397;BME280;35615;41.410;2.194;2023-05-22T11:02:37;101202.06;;;26.54;42.32
49397;BME280;35615;41.410;2.194;2023-05-22T11:07:44;101199.69;;;27.23;41.19
49397;BME280;35615;41.410;2.194;2023-05-22T11:10:12;101192.34;;;27.34;40.43
49397;BME280;35615;41.410;2.194;2023-05-22T11:12:39;101193.88;;;27.79;39.28
49397;BME280;35615;41.410;2.194;2023-05-22T11:15:08;101196.31;;;28.21;38.72
49397;BME280;35615;41.410;2.194;2023-05-22T11:17:42;101199.31;;;28.42;38.66
49397;BME280;35615;41.410;2.194;2023-05-22T11:20:17;101204.81;;;28.34;38.63
49397;BME280;35615;41.410;2.194;2023-05-22T11:22:58;101205.91;;;28.27;38.02
49397;BME280;35615;41.410;2.194;2023-05-22T11:25:27;101204.56;;;28.43;38.71
49397;BME280;35615;41.410;2.194;2023-05-22T11:27:56;101200.28;;;28.39;38.49
49397;BME280;35615;41.410;2.194;2023-05-22T11:30:25;101193.94;;;28.43;38.58
49397;BME280;35615;41.410;2.194;2023-05-22T11:32:56;101191.63;;;28.62;39.01
49397;BME280;35615;41.410;2.194;2023-05-22T11:35:25;101185.75;;;28.51;38.43
49397;BME280;35615;41.410;2.194;2023-05-22T11:37:53;101186.44;;;28.87;38.01
49397;BME280;35615;41.410;2.194;2023-05-22T11:40:26;101177.38;;;28.94;38.00
49397;BME280;35615;41.410;2.194;2023-05-22T11:42:55;101186.38;;;29.18;37.59
49397;BME280;35615;41.410;2.194;2023-05-22T11:45:23;101182.09;;;29.12;36.60
49397;BME280;35615;41.410;2.194;2023-05-22T11:47:51;101176.16;;;29.04;36.50
49397;BME280;35615;41.410;2.194;2023-05-22T11:50:21;101175.34;;;29.57;36.24
49397;BME280;35615;41.410;2.194;2023-05-22T11:53:07;101181.38;;;29.35;35.91
49397;BME280;35615;41.410;2.194;2023-05-22T11:55:37;101177.97;;;29.58;35.88
49397;BME280;35615;41.410;2.194;2023-05-22T11:58:06;101170.97;;;29.56;35.96
49397;BME280;35615;41.410;2.194;2023-05-22T12:00:39;101170.47;;;29.43;34.83
49397;BME280;35615;41.410;2.194;2023-05-22T12:03:11;101164.34;;;29.67;34.25
49397;BME280;35615;41.410;2.194;2023-05-22T12:05:44;101153.81;;;29.89;33.86
49397;BME280;35615;41.410;2.194;2023-05-22T12:08:21;101160.06;;;29.88;33.90
49397;BME280;35615;41.410;2.194;2023-05-22T12:10:56;101153.34;;;30.01;33.95
49397;BME280;35615;41.410;2.194;2023-05-22T12:13:29;101149.41;;;29.88;34.45
49397;BME280;35615;41.410;2.194;2023-05-22T12:15:58;101145.72;;;30.17;34.60
49397;BME280;35615;41.410;2.194;2023-05-22T12:18:35;101138.69;;;30.15;33.50
49397;BME280;35615;41.410;2.194;2023-05-22T12:21:06;101127.81;;;29.96;33.70
49397;BME280;35615;41.410;2.194;2023-05-22T12:23:35;101125.50;;;30.12;33.72
49397;BME280;35615;41.410;2.194;2023-05-22T12:26:10;101131.69;;;30.12;33.63
49397;BME280;35615;41.410;2.194;2023-05-22T12:28:57;101130.88;;;30.10;34.10
49397;BME280;35615;41.410;2.194;2023-05-22T12:31:35;101116.50;;;30.14;34.29
49397;BME280;35615;41.410;2.194;2023-05-22T12:34:20;101120.28;;;30.08;33.32
49397;BME280;35615;41.410;2.194;2023-05-22T12:37:22;101115.47;;;30.18;33.16
49397;BME280;35615;41.410;2.194;2023-05-22T12:40:04;101115.00;;;29.82;33.53
49397;BME280;35615;41.410;2.194;2023-05-22T12:42:35;101117.91;;;29.99;33.68
49397;BME280;35615;41.410;2.194;2023-05-22T12:45:14;101118.59;;;30.06;33.66
49397;BME280;35615;41.410;2.194;2023-05-22T12:47:46;101116.06;;;30.01;33.56
49397;BME280;35615;41.410;2.194;2023-05-22T12:50:41;101120.22;;;29.85;33.52
49397;BME280;35615;41.410;2.194;2023-05-22T12:53:14;101118.09;;;29.70;33.65
49397;BME280;35615;41.410;2.194;2023-05-22T12:55:50;101124.69;;;29.85;33.78
49397;BME280;35615;41.410;2.194;2023-05-22T12:58:29;101115.75;;;29.86;33.33
49397;BME280;35615;41.410;2.194;2023-05-22T13:01:01;101128.41;;;29.79;33.84
49397;BME280;35615;41.410;2.194;2023-05-22T13:03:30;101123.41;;;29.43;33.69
49397;BME280;35615;41.410;2.194;2023-05-22T13:06:04;101119.06;;;29.67;33.40
49397;BME280;35615;41.410;2.194;2023-05-22T13:08:35;101125.06;;;29.21;34.08
49397;BME280;35615;41.410;2.194;2023-05-22T13:11:10;101126.53;;;29.03;34.10
49397;BME280;35615;41.410;2.194;2023-05-22T13:13:43;101118.56;;;29.56;33.36
49397;BME280;35615;41.410;2.194;2023-05-22T13:16:16;101119.91;;;29.43;33.29
49397;BME280;35615;41.410;2.194;2023-05-22T13:19:15;101127.38;;;29.05;34.13
49397;BME280;35615;41.410;2.194;2023-05-22T13:21:55;101121.88;;;29.36;33.55
49397;BME280;35615;41.410;2.194;2023-05-22T13:24:27;101129.75;;;29.13;34.34
49397;BME280;35615;41.410;2.194;2023-05-22T13:27:14;101130.03;;;29.05;34.05
49397;BME280;35615;41.410;2.194;2023-05-22T13:29:49;101126.00;;;28.92;33.82
49397;BME280;35615;41.410;2.194;2023-05-22T13:32:32;101124.34;;;27.98;35.23
49397;BME280;35615;41.410;2.194;2023-05-22T13:35:31;101127.06;;;28.26;34.99
49397;BME280;35615;41.410;2.194;2023-05-22T13:38:26;101117.34;;;28.28;35.41
49397;BME280;35615;41.410;2.194;2023-05-22T13:41:13;101130.28;;;28.07;35.23